sensor_id;sensor_type;location;lat;lon;timestamp;P1;durP1;ratioP1;P2;durP2;ratioP2
72261;SDS011;60173;52.112;8.648;2023-05-19T00:01:47;11.98;;;4.90;;
72261;SDS011;60173;52.112;8.648;2023-05-19T00:04:14;8.40;;;3.67;;
72261;SDS011;60173;52.112;8.648;2023-05-19T00:06:40;9.05;;;4.25;;
72261;SDS011;60173;52.112;8.648;2023-05-19T00:09:08;11.07;;;4.20;;
72261;SDS011;60173;52.112;8.648;2023-05-19T00:11:35;9.00;;;3.83;;
72261;SDS011;60173;52.112;8.648;2023-05-19T00:14:04;13.10;;;4.30;;
72261;SDS011;60173;52.112;8.648;2023-05-19T00:16:32;9.70;;;3.85;;
72261;SDS011;60173;52.112;8.648;2023-05-19T00:19:00;12.18;;;4.40;;
72261;SDS011;60173;52.112;8.648;2023-05-19T00:21:28;11.60;;;4.50;;
72261;SDS011;60173;52.112;8.648;2023-05-19T00:23:55;11.07;;;4.28;;
72261;SDS011;60173;52.112;8.648;2023-05-19T00:26:22;15.55;;;5.13;;
72261;SDS011;60173;52.112;8.648;2023-05-19T00:28:49;12.82;;;4.50;;
72261;SDS011;60173;52.112;8.648;2023-05-19T00:31:16;12.95;;;4.90;;
72261;SDS011;60173;52.112;8.648;2023-05-19T00:33:42;14.95;;;5.32;;
72261;SDS011;60173;52.112;8.648;2023-05-19T00:36:09;17.27;;;5.43;;
72261;SDS011;60173;52.112;8.648;2023-05-19T00:38:35;9.90;;;5.03;;
72261;SDS011;60173;52.112;8.648;2023-05-19T00:41:03;9.10;;;4.88;;
72261;SDS011;60173;52.112;8.648;2023-05-19T00:43:30;10.10;;;5.13;;
72261;SDS011;60173;52.112;8.648;2023-05-19T00:45:57;12.25;;;4.70;;
72261;SDS011;60173;52.112;8.648;2023-05-19T00:48:24;10.93;;;4.63;;
72261;SDS011;60173;52.112;8.648;2023-05-19T00:50:55;14.60;;;5.63;;
72261;SDS011;60173;52.112;8.648;2023-05-19T00:53:22;10.35;;;4.63;;
72261;SDS011;60173;52.112;8.648;2023-05-19T00:55:49;19.60;;;5.57;;
72261;SDS011;60173;52.112;8.648;2023-05-19T00:58:16;12.15;;;5.32;;
72261;SDS011;60173;52.112;8.648;2023-05-19T01:00:43;7.85;;;4.72;;
72261;SDS011;60173;52.112;8.648;2023-05-19T01:03:10;14.60;;;4.95;;
72261;SDS011;60173;52.112;8.648;2023-05-19T01:05:38;11.82;;;5.22;;
72261;SDS011;60173;52.112;8.648;2023-05-19T01:08:05;11.23;;;4.97;;
72261;SDS011;60173;52.112;8.648;2023-05-19T01:10:33;14.05;;;5.70;;
72261;SDS011;60173;52.112;8.648;2023-05-19T01:13:00;10.20;;;4.68;;
72261;SDS011;60173;52.112;8.648;2023-05-19T01:15:28;13.82;;;5.38;;
72261;SDS011;60173;52.112;8.648;2023-05-19T01:18:07;13.13;;;5.43;;
72261;SDS011;60173;52.112;8.648;2023-05-19T01:31:24;12.75;;;5.20;;
72261;SDS011;60173;52.112;8.648;2023-05-19T01:33:52;13.85;;;5.43;;
72261;SDS011;60173;52.112;8.648;2023-05-19T01:36:20;14.93;;;6.10;;
72261;SDS011;60173;52.112;8.648;2023-05-19T01:38:51;15.27;;;5.80;;
72261;SDS011;60173;52.112;8.648;2023-05-19T01:41:19;11.02;;;5.05;;
72261;SDS011;60173;52.112;8.648;2023-05-19T01:43:47;12.80;;;5.25;;
72261;SDS011;60173;52.112;8.648;2023-05-19T01:46:15;12.30;;;5.63;;
72261;SDS011;60173;52.112;8.648;2023-05-19T01:48:43;10.68;;;5.80;;
72261;SDS011;60173;52.112;8.648;2023-05-19T01:51:10;8.90;;;5.65;;
72261;SDS011;60173;52.112;8.648;2023-05-19T01:53:36;13.07;;;5.95;;
72261;SDS011;60173;52.112;8.648;2023-05-19T01:56:03;14.75;;;6.72;;
72261;SDS011;60173;52.112;8.648;2023-05-19T01:58:40;13.75;;;5.57;;
72261;SDS011;60173;52.112;8.648;2023-05-19T02:01:20;15.50;;;6.10;;
72261;SDS011;60173;52.112;8.648;2023-05-19T02:06:41;15.88;;;6.45;;
72261;SDS011;60173;52.112;8.648;2023-05-19T02:09:17;14.15;;;6.10;;
72261;SDS011;60173;52.112;8.648;2023-05-19T02:11:59;18.25;;;6.35;;
72261;SDS011;60173;52.112;8.648;2023-05-19T02:14:37;10.68;;;5.50;;
72261;SDS011;60173;52.112;8.648;2023-05-19T02:17:06;10.98;;;5.88;;
72261;SDS011;60173;52.112;8.648;2023-05-19T02:19:35;16.40;;;6.07;;
72261;SDS011;60173;52.112;8.648;2023-05-19T02:22:03;12.43;;;6.20;;
72261;SDS011;60173;52.112;8.648;2023-05-19T02:24:29;12.00;;;6.28;;
72261;SDS011;60173;52.112;8.648;2023-05-19T02:26:56;13.27;;;6.22;;
72261;SDS011;60173;52.112;8.648;2023-05-19T02:29:22;14.18;;;6.55;;
72261;SDS011;60173;52.112;8.648;2023-05-19T02:31:49;14.07;;;6.45;;
72261;SDS011;60173;52.112;8.648;2023-05-19T02:34:15;13.57;;;7.38;;
72261;SDS011;60173;52.112;8.648;2023-05-19T02:36:41;14.68;;;7.10;;
72261;SDS011;60173;52.112;8.648;2023-05-19T02:39:08;14.25;;;7.38;;
72261;SDS011;60173;52.112;8.648;2023-05-19T02:41:36;11.68;;;6.72;;
72261;SDS011;60173;52.112;8.648;2023-05-19T02:44:02;16.25;;;7.15;;
72261;SDS011;60173;52.112;8.648;2023-05-19T02:46:29;16.63;;;6.72;;
72261;SDS011;60173;52.112;8.648;2023-05-19T02:48:56;12.93;;;6.82;;
72261;SDS011;60173;52.112;8.648;2023-05-19T02:51:22;15.43;;;7.28;;
72261;SDS011;60173;52.112;8.648;2023-05-19T02:53:48;14.40;;;7.03;;
72261;SDS011;60173;52.112;8.648;2023-05-19T02:56:15;12.88;;;6.65;;
72261;SDS011;60173;52.112;8.648;2023-05-19T02:58:41;17.35;;;7.38;;
72261;SDS011;60173;52.112;8.648;2023-05-19T03:01:08;12.27;;;6.07;;
72261;SDS011;60173;52.112;8.648;2023-05-19T03:03:35;16.40;;;7.18;;
72261;SDS011;60173;52.112;8.648;2023-05-19T03:06:01;18.08;;;6.70;;
72261;SDS011;60173;52.112;8.648;2023-05-19T03:08:28;10.75;;;5.90;;
72261;SDS011;60173;52.112;8.648;2023-05-19T03:10:54;18.45;;;7.10;;
72261;SDS011;60173;52.112;8.648;2023-05-19T03:13:21;14.57;;;7.07;;
72261;SDS011;60173;52.112;8.648;2023-05-19T03:15:47;15.00;;;6.97;;
72261;SDS011;60173;52.112;8.648;2023-05-19T03:18:14;12.10;;;7.15;;
72261;SDS011;60173;52.112;8.648;2023-05-19T03:20:40;14.40;;;7.30;;
72261;SDS011;60173;52.112;8.648;2023-05-19T03:23:08;11.23;;;7.38;;
72261;SDS011;60173;52.112;8.648;2023-05-19T03:25:34;17.63;;;8.13;;
72261;SDS011;60173;52.112;8.648;2023-05-19T03:28:00;12.82;;;8.32;;
72261;SDS011;60173;52.112;8.648;2023-05-19T03:30:27;17.30;;;8.48;;
72261;SDS011;60173;52.112;8.648;2023-05-19T03:32:53;17.65;;;8.27;;
72261;SDS011;60173;52.112;8.648;2023-05-19T03:35:20;18.75;;;8.70;;
72261;SDS011;60173;52.112;8.648;2023-05-19T03:37:46;16.95;;;8.95;;
72261;SDS011;60173;52.112;8.648;2023-05-19T03:40:12;18.90;;;8.10;;
72261;SDS011;60173;52.112;8.648;2023-05-19T03:42:39;14.57;;;8.27;;
72261;SDS011;60173;52.112;8.648;2023-05-19T03:45:05;17.83;;;8.43;;
72261;SDS011;60173;52.112;8.648;2023-05-19T03:47:32;15.80;;;7.35;;
72261;SDS011;60173;52.112;8.648;2023-05-19T03:49:58;12.55;;;7.50;;
72261;SDS011;60173;52.112;8.648;2023-05-19T03:52:25;17.38;;;7.82;;
72261;SDS011;60173;52.112;8.648;2023-05-19T03:54:51;15.85;;;7.88;;
72261;SDS011;60173;52.112;8.648;2023-05-19T03:57:18;12.63;;;7.60;;
72261;SDS011;60173;52.112;8.648;2023-05-19T03:59:44;15.20;;;7.50;;
72261;SDS011;60173;52.112;8.648;2023-05-19T04:02:11;12.07;;;7.63;;
72261;SDS011;60173;52.112;8.648;2023-05-19T04:04:37;13.05;;;7.75;;
72261;SDS011;60173;52.112;8.648;2023-05-19T04:07:04;11.93;;;7.15;;
72261;SDS011;60173;52.112;8.648;2023-05-19T04:09:30;15.02;;;7.57;;
72261;SDS011;60173;52.112;8.648;2023-05-19T04:11:56;13.65;;;7.30;;
72261;SDS011;60173;52.112;8.648;2023-05-19T04:14:23;15.02;;;7.82;;
72261;SDS011;60173;52.112;8.648;2023-05-19T04:16:49;15.70;;;8.55;;
72261;SDS011;60173;52.112;8.648;2023-05-19T04:19:16;11.70;;;7.40;;
72261;SDS011;60173;52.112;8.648;2023-05-19T04:21:43;16.50;;;8.63;;
72261;SDS011;60173;52.112;8.648;2023-05-19T04:24:09;14.40;;;8.43;;
72261;SDS011;60173;52.112;8.648;2023-05-19T04:26:35;15.75;;;8.45;;
72261;SDS011;60173;52.112;8.648;2023-05-19T04:29:02;15.57;;;8.63;;
72261;SDS011;60173;52.112;8.648;2023-05-19T04:31:29;12.75;;;8.68;;
72261;SDS011;60173;52.112;8.648;2023-05-19T04:33:56;15.82;;;7.95;;
72261;SDS011;60173;52.112;8.648;2023-05-19T04:36:22;18.75;;;9.68;;
72261;SDS011;60173;52.112;8.648;2023-05-19T04:38:48;14.30;;;8.20;;
72261;SDS011;60173;52.112;8.648;2023-05-19T04:41:15;14.50;;;8.60;;
72261;SDS011;60173;52.112;8.648;2023-05-19T04:43:41;13.70;;;7.95;;
72261;SDS011;60173;52.112;8.648;2023-05-19T04:46:08;12.50;;;7.60;;
72261;SDS011;60173;52.112;8.648;2023-05-19T04:48:37;14.98;;;8.23;;
72261;SDS011;60173;52.112;8.648;2023-05-19T04:51:04;14.85;;;7.47;;
72261;SDS011;60173;52.112;8.648;2023-05-19T04:53:30;12.23;;;6.97;;
72261;SDS011;60173;52.112;8.648;2023-05-19T04:55:57;13.73;;;7.90;;
72261;SDS011;60173;52.112;8.648;2023-05-19T04:58:24;12.80;;;7.32;;
72261;SDS011;60173;52.112;8.648;2023-05-19T05:00:51;13.35;;;7.43;;
72261;SDS011;60173;52.112;8.648;2023-05-19T05:03:17;13.88;;;7.72;;
72261;SDS011;60173;52.112;8.648;2023-05-19T05:05:44;10.50;;;7.57;;
72261;SDS011;60173;52.112;8.648;2023-05-19T05:08:10;12.43;;;7.55;;
72261;SDS011;60173;52.112;8.648;2023-05-19T05:10:37;11.35;;;6.43;;
72261;SDS011;60173;52.112;8.648;2023-05-19T05:13:03;9.40;;;6.53;;
72261;SDS011;60173;52.112;8.648;2023-05-19T05:15:30;13.38;;;6.72;;
72261;SDS011;60173;52.112;8.648;2023-05-19T05:17:56;12.25;;;6.53;;
72261;SDS011;60173;52.112;8.648;2023-05-19T05:20:23;12.07;;;7.50;;
72261;SDS011;60173;52.112;8.648;2023-05-19T05:22:50;13.20;;;6.35;;
72261;SDS011;60173;52.112;8.648;2023-05-19T05:25:17;9.75;;;6.15;;
72261;SDS011;60173;52.112;8.648;2023-05-19T05:27:43;8.38;;;5.68;;
72261;SDS011;60173;52.112;8.648;2023-05-19T05:30:10;10.05;;;6.05;;
72261;SDS011;60173;52.112;8.648;2023-05-19T05:32:36;9.68;;;5.10;;
72261;SDS011;60173;52.112;8.648;2023-05-19T05:35:03;10.57;;;6.47;;
72261;SDS011;60173;52.112;8.648;2023-05-19T05:37:30;13.40;;;6.45;;
72261;SDS011;60173;52.112;8.648;2023-05-19T05:39:57;13.57;;;6.57;;
72261;SDS011;60173;52.112;8.648;2023-05-19T05:42:23;9.15;;;5.97;;
72261;SDS011;60173;52.112;8.648;2023-05-19T05:44:49;12.93;;;5.72;;
72261;SDS011;60173;52.112;8.648;2023-05-19T05:47:16;12.80;;;5.60;;
72261;SDS011;60173;52.112;8.648;2023-05-19T05:49:42;7.82;;;4.90;;
72261;SDS011;60173;52.112;8.648;2023-05-19T05:52:09;7.75;;;4.97;;
72261;SDS011;60173;52.112;8.648;2023-05-19T05:54:37;6.88;;;4.85;;
72261;SDS011;60173;52.112;8.648;2023-05-19T05:57:03;9.85;;;4.95;;
72261;SDS011;60173;52.112;8.648;2023-05-19T05:59:30;8.35;;;4.80;;
72261;SDS011;60173;52.112;8.648;2023-05-19T06:01:57;7.93;;;4.10;;
72261;SDS011;60173;52.112;8.648;2023-05-19T06:04:23;10.70;;;4.53;;
72261;SDS011;60173;52.112;8.648;2023-05-19T06:06:49;7.93;;;4.25;;
72261;SDS011;60173;52.112;8.648;2023-05-19T06:09:16;9.50;;;4.45;;
72261;SDS011;60173;52.112;8.648;2023-05-19T06:11:42;12.18;;;4.93;;
72261;SDS011;60173;52.112;8.648;2023-05-19T06:14:09;9.70;;;4.28;;
72261;SDS011;60173;52.112;8.648;2023-05-19T06:16:35;12.77;;;4.80;;
72261;SDS011;60173;52.112;8.648;2023-05-19T06:19:02;11.82;;;3.75;;
72261;SDS011;60173;52.112;8.648;2023-05-19T06:21:28;12.75;;;4.93;;
72261;SDS011;60173;52.112;8.648;2023-05-19T06:23:54;14.02;;;4.63;;
72261;SDS011;60173;52.112;8.648;2023-05-19T06:26:21;9.27;;;3.85;;
72261;SDS011;60173;52.112;8.648;2023-05-19T06:28:47;8.98;;;4.30;;
72261;SDS011;60173;52.112;8.648;2023-05-19T06:31:13;10.68;;;4.40;;
72261;SDS011;60173;52.112;8.648;2023-05-19T06:33:40;11.82;;;4.97;;
72261;SDS011;60173;52.112;8.648;2023-05-19T06:36:06;14.40;;;5.05;;
72261;SDS011;60173;52.112;8.648;2023-05-19T06:38:33;11.52;;;4.85;;
72261;SDS011;60173;52.112;8.648;2023-05-19T06:40:59;14.60;;;5.07;;
72261;SDS011;60173;52.112;8.648;2023-05-19T06:43:25;11.80;;;4.50;;
72261;SDS011;60173;52.112;8.648;2023-05-19T06:45:52;10.48;;;4.63;;
72261;SDS011;60173;52.112;8.648;2023-05-19T06:48:18;10.05;;;3.97;;
72261;SDS011;60173;52.112;8.648;2023-05-19T06:50:44;11.48;;;4.30;;
72261;SDS011;60173;52.112;8.648;2023-05-19T06:53:11;9.63;;;4.32;;
72261;SDS011;60173;52.112;8.648;2023-05-19T06:55:37;9.77;;;3.90;;
72261;SDS011;60173;52.112;8.648;2023-05-19T06:58:22;8.60;;;3.92;;
72261;SDS011;60173;52.112;8.648;2023-05-19T07:00:49;13.52;;;4.50;;
72261;SDS011;60173;52.112;8.648;2023-05-19T07:03:15;9.52;;;4.28;;
72261;SDS011;60173;52.112;8.648;2023-05-19T07:05:42;9.10;;;3.72;;
72261;SDS011;60173;52.112;8.648;2023-05-19T07:08:08;9.68;;;3.90;;
72261;SDS011;60173;52.112;8.648;2023-05-19T07:10:35;9.23;;;4.18;;
72261;SDS011;60173;52.112;8.648;2023-05-19T07:13:01;11.77;;;4.35;;
72261;SDS011;60173;52.112;8.648;2023-05-19T07:15:28;13.70;;;4.93;;
72261;SDS011;60173;52.112;8.648;2023-05-19T07:17:54;10.57;;;4.25;;
72261;SDS011;60173;52.112;8.648;2023-05-19T07:20:21;13.57;;;4.53;;
72261;SDS011;60173;52.112;8.648;2023-05-19T07:22:47;12.18;;;4.43;;
72261;SDS011;60173;52.112;8.648;2023-05-19T07:25:13;15.13;;;4.95;;
72261;SDS011;60173;52.112;8.648;2023-05-19T07:27:40;11.57;;;4.13;;
72261;SDS011;60173;52.112;8.648;2023-05-19T07:30:06;10.15;;;3.88;;
72261;SDS011;60173;52.112;8.648;2023-05-19T07:32:33;13.50;;;5.10;;
72261;SDS011;60173;52.112;8.648;2023-05-19T07:34:59;9.80;;;4.47;;
72261;SDS011;60173;52.112;8.648;2023-05-19T07:37:26;12.18;;;5.97;;
72261;SDS011;60173;52.112;8.648;2023-05-19T07:39:52;12.73;;;4.43;;
72261;SDS011;60173;52.112;8.648;2023-05-19T07:42:19;13.38;;;4.63;;
72261;SDS011;60173;52.112;8.648;2023-05-19T07:44:45;7.57;;;3.42;;
72261;SDS011;60173;52.112;8.648;2023-05-19T07:47:11;9.35;;;3.30;;
72261;SDS011;60173;52.112;8.648;2023-05-19T07:49:38;12.95;;;3.42;;
72261;SDS011;60173;52.112;8.648;2023-05-19T07:52:04;4.85;;;2.50;;
72261;SDS011;60173;52.112;8.648;2023-05-19T07:54:31;7.85;;;2.63;;
72261;SDS011;60173;52.112;8.648;2023-05-19T07:56:57;5.70;;;2.53;;
72261;SDS011;60173;52.112;8.648;2023-05-19T07:59:24;9.65;;;2.97;;
72261;SDS011;60173;52.112;8.648;2023-05-19T08:01:50;5.55;;;2.63;;
72261;SDS011;60173;52.112;8.648;2023-05-19T08:04:16;11.57;;;3.20;;
72261;SDS011;60173;52.112;8.648;2023-05-19T08:06:43;12.18;;;2.97;;
72261;SDS011;60173;52.112;8.648;2023-05-19T08:09:09;9.13;;;2.70;;
72261;SDS011;60173;52.112;8.648;2023-05-19T08:11:36;8.88;;;2.53;;
72261;SDS011;60173;52.112;8.648;2023-05-19T08:14:02;10.07;;;2.78;;
72261;SDS011;60173;52.112;8.648;2023-05-19T08:16:29;7.72;;;2.80;;
72261;SDS011;60173;52.112;8.648;2023-05-19T08:18:55;10.43;;;2.83;;
72261;SDS011;60173;52.112;8.648;2023-05-19T08:21:22;9.93;;;2.75;;
72261;SDS011;60173;52.112;8.648;2023-05-19T08:23:48;6.63;;;2.35;;
72261;SDS011;60173;52.112;8.648;2023-05-19T08:26:14;12.73;;;3.13;;
72261;SDS011;60173;52.112;8.648;2023-05-19T08:28:41;6.78;;;2.38;;
72261;SDS011;60173;52.112;8.648;2023-05-19T08:31:07;14.48;;;3.33;;
72261;SDS011;60173;52.112;8.648;2023-05-19T08:33:34;9.02;;;2.25;;
72261;SDS011;60173;52.112;8.648;2023-05-19T08:36:00;9.63;;;2.72;;
72261;SDS011;60173;52.112;8.648;2023-05-19T08:38:26;7.32;;;2.50;;
72261;SDS011;60173;52.112;8.648;2023-05-19T08:40:53;12.00;;;2.95;;
72261;SDS011;60173;52.112;8.648;2023-05-19T08:43:19;6.25;;;2.10;;
72261;SDS011;60173;52.112;8.648;2023-05-19T08:45:46;8.63;;;2.47;;
72261;SDS011;60173;52.112;8.648;2023-05-19T08:48:13;5.60;;;2.10;;
72261;SDS011;60173;52.112;8.648;2023-05-19T08:50:43;8.70;;;1.95;;
72261;SDS011;60173;52.112;8.648;2023-05-19T08:53:18;4.45;;;2.20;;
72261;SDS011;60173;52.112;8.648;2023-05-19T08:56:13;9.55;;;2.35;;
72261;SDS011;60173;52.112;8.648;2023-05-19T08:58:41;6.93;;;2.20;;
72261;SDS011;60173;52.112;8.648;2023-05-19T09:01:10;9.68;;;2.35;;
72261;SDS011;60173;52.112;8.648;2023-05-19T09:03:39;8.23;;;2.05;;
72261;SDS011;60173;52.112;8.648;2023-05-19T09:06:08;8.13;;;2.17;;
72261;SDS011;60173;52.112;8.648;2023-05-19T09:08:35;7.32;;;2.05;;
72261;SDS011;60173;52.112;8.648;2023-05-19T09:11:02;7.13;;;2.30;;
72261;SDS011;60173;52.112;8.648;2023-05-19T09:13:28;9.20;;;2.30;;
72261;SDS011;60173;52.112;8.648;2023-05-19T09:15:55;10.43;;;2.05;;
72261;SDS011;60173;52.112;8.648;2023-05-19T09:18:23;5.45;;;2.00;;
72261;SDS011;60173;52.112;8.648;2023-05-19T09:20:50;9.32;;;2.38;;
72261;SDS011;60173;52.112;8.648;2023-05-19T09:23:20;5.90;;;1.70;;
72261;SDS011;60173;52.112;8.648;2023-05-19T09:25:48;4.97;;;2.20;;
72261;SDS011;60173;52.112;8.648;2023-05-19T09:28:25;8.38;;;2.10;;
72261;SDS011;60173;52.112;8.648;2023-05-19T09:30:59;6.80;;;1.92;;
72261;SDS011;60173;52.112;8.648;2023-05-19T09:33:26;6.38;;;2.58;;
72261;SDS011;60173;52.112;8.648;2023-05-19T09:35:53;5.65;;;2.03;;
72261;SDS011;60173;52.112;8.648;2023-05-19T09:38:21;5.80;;;1.88;;
72261;SDS011;60173;52.112;8.648;2023-05-19T09:40:49;7.18;;;2.08;;
72261;SDS011;60173;52.112;8.648;2023-05-19T09:43:15;5.22;;;1.90;;
72261;SDS011;60173;52.112;8.648;2023-05-19T09:45:42;3.75;;;1.55;;
72261;SDS011;60173;52.112;8.648;2023-05-19T09:48:09;6.60;;;2.30;;
72261;SDS011;60173;52.112;8.648;2023-05-19T09:50:35;6.20;;;2.40;;
72261;SDS011;60173;52.112;8.648;2023-05-19T09:53:02;7.43;;;2.60;;
72261;SDS011;60173;52.112;8.648;2023-05-19T09:55:28;8.50;;;2.60;;
72261;SDS011;60173;52.112;8.648;2023-05-19T09:57:56;5.57;;;2.35;;
72261;SDS011;60173;52.112;8.648;2023-05-19T10:00:22;6.88;;;2.47;;
72261;SDS011;60173;52.112;8.648;2023-05-19T10:02:48;8.07;;;2.20;;
72261;SDS011;60173;52.112;8.648;2023-05-19T10:05:16;8.52;;;2.00;;
72261;SDS011;60173;52.112;8.648;2023-05-19T10:07:44;9.52;;;3.25;;
72261;SDS011;60173;52.112;8.648;2023-05-19T10:10:15;6.47;;;2.47;;
72261;SDS011;60173;52.112;8.648;2023-05-19T10:12:42;8.20;;;2.95;;
72261;SDS011;60173;52.112;8.648;2023-05-19T10:15:09;8.52;;;2.35;;
72261;SDS011;60173;52.112;8.648;2023-05-19T10:17:40;5.03;;;2.33;;
72261;SDS011;60173;52.112;8.648;2023-05-19T10:20:08;8.20;;;2.70;;
72261;SDS011;60173;52.112;8.648;2023-05-19T10:22:36;6.78;;;2.40;;
72261;SDS011;60173;52.112;8.648;2023-05-19T10:25:03;4.93;;;2.20;;
72261;SDS011;60173;52.112;8.648;2023-05-19T10:27:30;7.95;;;2.38;;
72261;SDS011;60173;52.112;8.648;2023-05-19T10:30:01;7.65;;;2.30;;
72261;SDS011;60173;52.112;8.648;2023-05-19T10:32:43;6.53;;;2.05;;
72261;SDS011;60173;52.112;8.648;2023-05-19T10:38:15;4.30;;;1.80;;
72261;SDS011;60173;52.112;8.648;2023-05-19T10:49:08;6.95;;;2.20;;
72261;SDS011;60173;52.112;8.648;2023-05-19T10:51:34;10.05;;;3.00;;
72261;SDS011;60173;52.112;8.648;2023-05-19T10:54:02;6.20;;;2.75;;
72261;SDS011;60173;52.112;8.648;2023-05-19T10:56:33;7.07;;;2.50;;
72261;SDS011;60173;52.112;8.648;2023-05-19T10:58:59;8.07;;;2.30;;
72261;SDS011;60173;52.112;8.648;2023-05-19T11:01:34;8.18;;;2.40;;
72261;SDS011;60173;52.112;8.648;2023-05-19T11:04:04;4.20;;;2.10;;
72261;SDS011;60173;52.112;8.648;2023-05-19T11:06:33;6.13;;;2.20;;
72261;SDS011;60173;52.112;8.648;2023-05-19T11:09:10;6.03;;;1.80;;
72261;SDS011;60173;52.112;8.648;2023-05-19T11:11:51;9.02;;;2.60;;
72261;SDS011;60173;52.112;8.648;2023-05-19T11:14:19;8.68;;;2.28;;
72261;SDS011;60173;52.112;8.648;2023-05-19T11:16:56;6.63;;;2.10;;
72261;SDS011;60173;52.112;8.648;2023-05-19T11:19:28;2.67;;;1.67;;
72261;SDS011;60173;52.112;8.648;2023-05-19T11:21:56;4.63;;;1.50;;
72261;SDS011;60173;52.112;8.648;2023-05-19T11:24:42;4.45;;;1.50;;
72261;SDS011;60173;52.112;8.648;2023-05-19T11:27:25;3.65;;;1.60;;
72261;SDS011;60173;52.112;8.648;2023-05-19T11:29:54;4.20;;;1.75;;
72261;SDS011;60173;52.112;8.648;2023-05-19T11:32:24;4.65;;;1.88;;
72261;SDS011;60173;52.112;8.648;2023-05-19T11:34:53;3.88;;;1.67;;
72261;SDS011;60173;52.112;8.648;2023-05-19T11:37:21;3.05;;;1.38;;
72261;SDS011;60173;52.112;8.648;2023-05-19T11:39:48;3.85;;;1.85;;
72261;SDS011;60173;52.112;8.648;2023-05-19T11:42:14;3.67;;;1.77;;
72261;SDS011;60173;52.112;8.648;2023-05-19T11:44:42;4.80;;;1.92;;
72261;SDS011;60173;52.112;8.648;2023-05-19T11:47:08;5.05;;;1.60;;
72261;SDS011;60173;52.112;8.648;2023-05-19T11:49:35;3.25;;;1.73;;
72261;SDS011;60173;52.112;8.648;2023-05-19T11:52:02;5.25;;;2.20;;
72261;SDS011;60173;52.112;8.648;2023-05-19T11:54:30;4.78;;;1.67;;
72261;SDS011;60173;52.112;8.648;2023-05-19T11:57:04;4.72;;;1.65;;
72261;SDS011;60173;52.112;8.648;2023-05-19T12:02:01;2.75;;;1.48;;
72261;SDS011;60173;52.112;8.648;2023-05-19T12:04:39;3.25;;;1.27;;
72261;SDS011;60173;52.112;8.648;2023-05-19T12:07:06;4.35;;;1.98;;
72261;SDS011;60173;52.112;8.648;2023-05-19T12:09:32;8.70;;;2.53;;
72261;SDS011;60173;52.112;8.648;2023-05-19T12:11:59;3.95;;;2.17;;
72261;SDS011;60173;52.112;8.648;2023-05-19T12:14:28;4.63;;;1.90;;
72261;SDS011;60173;52.112;8.648;2023-05-19T12:16:55;4.10;;;1.83;;
72261;SDS011;60173;52.112;8.648;2023-05-19T12:19:22;7.95;;;2.25;;
72261;SDS011;60173;52.112;8.648;2023-05-19T12:21:50;6.85;;;2.03;;
72261;SDS011;60173;52.112;8.648;2023-05-19T12:24:18;2.85;;;1.75;;
72261;SDS011;60173;52.112;8.648;2023-05-19T12:26:45;3.75;;;1.50;;
72261;SDS011;60173;52.112;8.648;2023-05-19T12:29:11;4.68;;;2.00;;
72261;SDS011;60173;52.112;8.648;2023-05-19T12:31:38;4.45;;;1.80;;
72261;SDS011;60173;52.112;8.648;2023-05-19T12:34:05;2.85;;;1.60;;
72261;SDS011;60173;52.112;8.648;2023-05-19T12:36:31;3.83;;;1.83;;
72261;SDS011;60173;52.112;8.648;2023-05-19T12:38:57;5.35;;;1.60;;
72261;SDS011;60173;52.112;8.648;2023-05-19T12:41:24;5.45;;;2.10;;
72261;SDS011;60173;52.112;8.648;2023-05-19T12:43:50;6.07;;;1.80;;
72261;SDS011;60173;52.112;8.648;2023-05-19T12:46:17;5.25;;;1.83;;
72261;SDS011;60173;52.112;8.648;2023-05-19T12:48:44;5.80;;;2.00;;
72261;SDS011;60173;52.112;8.648;2023-05-19T12:51:15;5.28;;;1.85;;
72261;SDS011;60173;52.112;8.648;2023-05-19T12:53:45;6.38;;;2.17;;
72261;SDS011;60173;52.112;8.648;2023-05-19T12:56:12;3.78;;;1.90;;
72261;SDS011;60173;52.112;8.648;2023-05-19T12:58:40;4.68;;;2.20;;
72261;SDS011;60173;52.112;8.648;2023-05-19T13:01:14;5.82;;;1.98;;
72261;SDS011;60173;52.112;8.648;2023-05-19T13:03:42;5.78;;;1.98;;
72261;SDS011;60173;52.112;8.648;2023-05-19T13:06:09;4.75;;;2.20;;
72261;SDS011;60173;52.112;8.648;2023-05-19T13:08:36;6.30;;;2.20;;
72261;SDS011;60173;52.112;8.648;2023-05-19T13:11:03;5.13;;;2.25;;
72261;SDS011;60173;52.112;8.648;2023-05-19T13:13:29;7.10;;;2.28;;
72261;SDS011;60173;52.112;8.648;2023-05-19T13:15:56;6.72;;;2.15;;
72261;SDS011;60173;52.112;8.648;2023-05-19T13:18:22;3.80;;;2.10;;
72261;SDS011;60173;52.112;8.648;2023-05-19T13:20:48;5.18;;;2.60;;
72261;SDS011;60173;52.112;8.648;2023-05-19T13:23:15;5.95;;;2.22;;
72261;SDS011;60173;52.112;8.648;2023-05-19T13:25:42;5.25;;;2.00;;
72261;SDS011;60173;52.112;8.648;2023-05-19T13:28:08;3.95;;;2.13;;
72261;SDS011;60173;52.112;8.648;2023-05-19T13:30:35;5.53;;;1.90;;
72261;SDS011;60173;52.112;8.648;2023-05-19T13:33:03;3.65;;;2.10;;
72261;SDS011;60173;52.112;8.648;2023-05-19T13:35:30;4.38;;;2.10;;
72261;SDS011;60173;52.112;8.648;2023-05-19T13:37:56;5.55;;;1.77;;
72261;SDS011;60173;52.112;8.648;2023-05-19T13:40:23;4.45;;;2.10;;
72261;SDS011;60173;52.112;8.648;2023-05-19T13:42:49;7.57;;;2.20;;
72261;SDS011;60173;52.112;8.648;2023-05-19T13:45:16;6.93;;;1.95;;
72261;SDS011;60173;52.112;8.648;2023-05-19T13:47:42;4.45;;;1.80;;
72261;SDS011;60173;52.112;8.648;2023-05-19T13:50:08;4.80;;;2.15;;
72261;SDS011;60173;52.112;8.648;2023-05-19T13:52:35;4.38;;;2.03;;
72261;SDS011;60173;52.112;8.648;2023-05-19T13:55:01;3.97;;;1.77;;
72261;SDS011;60173;52.112;8.648;2023-05-19T13:57:28;4.53;;;2.03;;
72261;SDS011;60173;52.112;8.648;2023-05-19T13:59:54;4.88;;;1.90;;
72261;SDS011;60173;52.112;8.648;2023-05-19T14:02:28;6.78;;;2.33;;
72261;SDS011;60173;52.112;8.648;2023-05-19T14:04:55;3.50;;;1.50;;
72261;SDS011;60173;52.112;8.648;2023-05-19T14:07:22;8.80;;;2.20;;
72261;SDS011;60173;52.112;8.648;2023-05-19T14:09:48;6.20;;;1.77;;
72261;SDS011;60173;52.112;8.648;2023-05-19T14:12:15;6.90;;;2.55;;
72261;SDS011;60173;52.112;8.648;2023-05-19T14:14:41;6.50;;;1.88;;
72261;SDS011;60173;52.112;8.648;2023-05-19T14:17:07;8.43;;;4.57;;
72261;SDS011;60173;52.112;8.648;2023-05-19T14:19:34;5.75;;;2.00;;
72261;SDS011;60173;52.112;8.648;2023-05-19T14:22:00;3.97;;;1.70;;
72261;SDS011;60173;52.112;8.648;2023-05-19T14:24:27;4.43;;;1.83;;
72261;SDS011;60173;52.112;8.648;2023-05-19T14:26:53;5.18;;;2.22;;
72261;SDS011;60173;52.112;8.648;2023-05-19T14:29:19;2.95;;;1.70;;
72261;SDS011;60173;52.112;8.648;2023-05-19T14:31:46;3.55;;;1.85;;
72261;SDS011;60173;52.112;8.648;2023-05-19T14:34:12;5.30;;;1.80;;
72261;SDS011;60173;52.112;8.648;2023-05-19T14:36:39;4.35;;;2.47;;
72261;SDS011;60173;52.112;8.648;2023-05-19T14:39:05;7.60;;;1.75;;
72261;SDS011;60173;52.112;8.648;2023-05-19T14:41:31;2.90;;;1.50;;
72261;SDS011;60173;52.112;8.648;2023-05-19T14:43:58;5.70;;;1.70;;
72261;SDS011;60173;52.112;8.648;2023-05-19T14:46:24;4.97;;;1.60;;
72261;SDS011;60173;52.112;8.648;2023-05-19T14:48:51;1.85;;;1.20;;
72261;SDS011;60173;52.112;8.648;2023-05-19T14:51:17;4.32;;;1.50;;
72261;SDS011;60173;52.112;8.648;2023-05-19T14:53:43;2.33;;;1.52;;
72261;SDS011;60173;52.112;8.648;2023-05-19T14:56:10;6.10;;;2.13;;
72261;SDS011;60173;52.112;8.648;2023-05-19T14:58:36;4.30;;;1.63;;
72261;SDS011;60173;52.112;8.648;2023-05-19T15:01:02;4.90;;;2.03;;
72261;SDS011;60173;52.112;8.648;2023-05-19T15:03:29;4.78;;;1.38;;
72261;SDS011;60173;52.112;8.648;2023-05-19T15:05:55;4.72;;;1.88;;
72261;SDS011;60173;52.112;8.648;2023-05-19T15:08:22;4.45;;;2.03;;
72261;SDS011;60173;52.112;8.648;2023-05-19T15:10:48;5.82;;;2.03;;